createdAt,value
2017-09-26T00:00:36.115Z,35.90
2017-09-26T00:03:03.805Z,34.03
2017-09-26T00:05:31.371Z,33.00
2017-09-26T00:07:58.932Z,36.60
2017-09-26T00:10:25.881Z,29.90
2017-09-26T00:12:52.712Z,31.03
2017-09-26T00:15:19.541Z,32.27
2017-09-26T00:17:47.122Z,30.13
2017-09-26T00:20:17.327Z,35.30
2017-09-26T00:22:44.270Z,32.60
2017-09-26T00:25:11.082Z,31.67
2017-09-26T00:27:38.663Z,32.60
2017-09-26T00:30:06.256Z,27.47
2017-09-26T00:32:33.822Z,30.80
2017-09-26T00:35:01.445Z,36.00
2017-09-26T00:37:28.302Z,33.80
2017-09-26T00:39:55.228Z,28.73
2017-09-26T00:42:22.798Z,32.07
2017-09-26T00:44:50.339Z,32.60
2017-09-26T00:47:17.175Z,33.93
2017-09-26T00:49:44.024Z,33.77
2017-09-26T00:52:10.891Z,29.57
2017-09-26T00:54:37.751Z,31.60
2017-09-26T00:57:04.661Z,31.67
2017-09-26T00:59:31.525Z,28.20
2017-09-26T01:01:58.358Z,29.63
2017-09-26T01:04:25.196Z,30.30
2017-09-26T01:06:53.958Z,27.83
2017-09-26T01:09:20.804Z,28.27
2017-09-26T01:11:47.661Z,29.97
2017-09-26T01:14:14.513Z,32.77
2017-09-26T01:16:41.415Z,33.10
2017-09-26T01:19:09.030Z,40.23
2017-09-26T01:21:35.987Z,34.67
2017-09-26T01:24:02.839Z,36.30
2017-09-26T01:26:29.658Z,34.20
2017-09-26T01:28:56.501Z,38.87
2017-09-26T01:31:23.347Z,42.13
2017-09-26T01:33:50.177Z,35.77
2017-09-26T01:36:17.688Z,39.00
2017-09-26T01:38:44.472Z,35.07
2017-09-26T01:41:23.432Z,42.63
2017-09-26T01:43:50.215Z,38.73
2017-09-26T01:46:17.007Z,40.10
2017-09-26T01:48:43.857Z,35.03
2017-09-26T01:51:10.700Z,32.63
2017-09-26T01:53:37.533Z,37.63
2017-09-26T01:56:04.352Z,36.90
2017-09-26T01:58:37.995Z,38.37
2017-09-26T02:01:04.806Z,36.13
2017-09-26T02:03:31.639Z,37.43
2017-09-26T02:05:59.177Z,35.73
2017-09-26T02:08:25.976Z,38.87
2017-09-26T02:10:53.546Z,36.03
2017-09-26T02:13:20.343Z,35.10
2017-09-26T02:15:47.129Z,38.13
2017-09-26T02:18:13.958Z,36.97
2017-09-26T02:20:40.773Z,34.90
2017-09-26T02:23:07.594Z,39.10
2017-09-26T02:25:34.409Z,37.70
2017-09-26T02:28:01.241Z,37.97
2017-09-26T02:30:28.086Z,35.43
2017-09-26T02:32:54.887Z,39.73
2017-09-26T02:35:21.748Z,33.23
2017-09-26T02:37:48.528Z,34.43
2017-09-26T02:40:16.068Z,38.87
2017-09-26T02:42:42.858Z,37.63
2017-09-26T02:45:10.410Z,41.40
2017-09-26T02:47:37.214Z,35.87
2017-09-26T02:50:04.001Z,36.20
2017-09-26T02:52:30.821Z,33.83
2017-09-26T02:54:58.410Z,36.30
2017-09-26T02:57:25.233Z,34.20
2017-09-26T02:59:52.089Z,33.20
2017-09-26T03:02:18.893Z,37.83
2017-09-26T03:04:45.722Z,36.50
2017-09-26T03:07:12.517Z,32.57
2017-09-26T03:09:39.322Z,36.57
2017-09-26T03:12:06.240Z,42.50
2017-09-26T03:14:33.035Z,42.67
2017-09-26T03:16:59.848Z,39.27
2017-09-26T03:19:27.428Z,37.37
2017-09-26T03:21:54.232Z,35.33
2017-09-26T03:24:21.045Z,39.47
2017-09-26T03:26:48.586Z,41.87
2017-09-26T03:29:15.384Z,38.57
2017-09-26T03:31:42.998Z,38.90
2017-09-26T03:34:09.827Z,38.07
2017-09-26T03:36:36.674Z,37.70
2017-09-26T03:39:04.281Z,38.77
2017-09-26T03:41:31.080Z,45.00
2017-09-26T03:43:57.869Z,43.10
2017-09-26T03:46:25.465Z,41.20
2017-09-26T03:48:52.264Z,40.20
2017-09-26T03:51:19.075Z,46.87
2017-09-26T03:53:46.679Z,41.87
2017-09-26T03:56:13.498Z,37.03
2017-09-26T03:58:40.374Z,43.47
2017-09-26T04:01:07.959Z,39.60
2017-09-26T04:03:35.558Z,38.60
2017-09-26T04:06:02.429Z,35.43
2017-09-26T04:08:29.362Z,35.17
2017-09-26T04:10:56.929Z,34.07
2017-09-26T04:13:24.520Z,41.17
2017-09-26T04:15:52.073Z,36.13
2017-09-26T04:18:18.978Z,39.80
2017-09-26T04:20:45.800Z,40.67
2017-09-26T04:23:12.614Z,34.93
2017-09-26T04:25:39.433Z,37.67
2017-09-26T04:28:07.075Z,34.50
2017-09-26T04:30:33.919Z,35.80
2017-09-26T04:33:00.722Z,32.47
2017-09-26T04:35:27.550Z,37.97
2017-09-26T04:37:54.337Z,38.43
2017-09-26T04:40:21.177Z,36.60
2017-09-26T04:42:48.006Z,33.03
2017-09-26T04:45:14.846Z,35.20
2017-09-26T04:47:42.382Z,29.23
2017-09-26T04:50:09.248Z,35.67
2017-09-26T04:52:36.070Z,35.37
2017-09-26T04:55:02.864Z,35.87
2017-09-26T04:57:29.700Z,30.30
2017-09-26T04:59:56.494Z,34.67
2017-09-26T05:02:23.343Z,34.23
2017-09-26T05:04:50.214Z,45.57
2017-09-26T05:07:17.028Z,36.37
2017-09-26T05:09:44.583Z,35.60
2017-09-26T05:12:12.167Z,39.57
2017-09-26T05:14:38.997Z,37.07
2017-09-26T05:17:05.801Z,41.97
2017-09-26T05:19:32.610Z,36.60
2017-09-26T05:21:59.426Z,37.17
2017-09-26T05:24:26.237Z,36.70
2017-09-26T05:26:53.070Z,38.53
2017-09-26T05:29:19.856Z,36.43
2017-09-26T05:31:46.667Z,34.03
2017-09-26T05:34:14.202Z,39.93
2017-09-26T05:36:41.024Z,36.00
2017-09-26T05:39:07.850Z,36.17
2017-09-26T05:41:34.648Z,35.90
2017-09-26T05:44:01.492Z,47.60
2017-09-26T05:46:28.293Z,31.13
2017-09-26T05:48:55.127Z,40.07
2017-09-26T05:51:21.916Z,36.50
2017-09-26T05:53:48.703Z,41.13
2017-09-26T05:56:16.205Z,38.73
2017-09-26T05:58:42.976Z,41.33
2017-09-26T06:01:09.768Z,37.73
2017-09-26T06:03:36.582Z,35.63
2017-09-26T06:06:03.418Z,39.90
2017-09-26T06:08:30.962Z,36.27
2017-09-26T06:10:57.759Z,37.00
2017-09-26T06:13:25.318Z,44.67
2017-09-26T06:15:52.843Z,34.20
2017-09-26T06:18:19.673Z,46.93
2017-09-26T06:20:46.468Z,33.63
2017-09-26T06:23:13.306Z,40.80
2017-09-26T06:25:40.130Z,46.87
2017-09-26T06:28:06.938Z,39.57
2017-09-26T06:30:33.757Z,40.40
2017-09-26T06:33:01.279Z,39.60
2017-09-26T06:35:28.102Z,41.07
2017-09-26T06:37:55.678Z,38.37
2017-09-26T06:40:23.204Z,40.43
2017-09-26T06:42:50.037Z,36.93
2017-09-26T06:45:16.898Z,38.77
2017-09-26T06:47:43.688Z,42.60
2017-09-26T06:50:10.517Z,49.50
2017-09-26T06:52:37.310Z,48.87
2017-09-26T06:55:04.152Z,41.73
2017-09-26T06:57:30.955Z,41.27
2017-09-26T06:59:57.766Z,36.87
2017-09-26T07:02:24.562Z,37.50
2017-09-26T07:04:51.382Z,42.90
2017-09-26T07:07:18.205Z,36.87
2017-09-26T07:09:44.995Z,39.00
2017-09-26T07:12:11.794Z,40.27
2017-09-26T07:14:38.569Z,35.63
2017-09-26T07:17:05.361Z,40.17
2017-09-26T07:19:32.896Z,37.53
2017-09-26T07:21:59.709Z,39.70
2017-09-26T07:24:26.537Z,35.80
2017-09-26T07:26:53.381Z,34.80
2017-09-26T07:29:20.217Z,41.20
2017-09-26T07:31:47.102Z,37.10
2017-09-26T07:34:13.918Z,41.30
2017-09-26T07:36:40.759Z,40.77
2017-09-26T07:39:08.288Z,36.53
2017-09-26T07:41:35.084Z,37.77
2017-09-26T07:44:01.868Z,37.27
2017-09-26T07:46:28.670Z,38.53
2017-09-26T07:48:55.474Z,39.43
2017-09-26T07:51:23.079Z,40.13
2017-09-26T07:53:49.857Z,41.30
2017-09-26T07:56:16.656Z,34.10
2017-09-26T07:58:43.511Z,39.80
2017-09-26T08:01:11.082Z,40.67
2017-09-26T08:03:38.556Z,37.30
2017-09-26T08:06:06.131Z,38.73
2017-09-26T08:08:33.786Z,37.57
2017-09-26T08:11:00.581Z,36.83
2017-09-26T08:13:27.391Z,34.80
2017-09-26T08:15:54.190Z,38.10
2017-09-26T08:18:20.972Z,32.20
2017-09-26T08:20:47.776Z,32.03
2017-09-26T08:23:14.591Z,34.20
2017-09-26T08:25:41.390Z,28.80
2017-09-26T08:28:08.196Z,33.73
2017-09-26T08:30:35.059Z,30.40
2017-09-26T08:33:01.857Z,34.40
2017-09-26T08:35:28.682Z,31.07
2017-09-26T08:37:55.518Z,30.33
2017-09-26T08:40:22.381Z,35.73
2017-09-26T08:42:49.181Z,40.60
2017-09-26T08:45:17.726Z,33.57
2017-09-26T08:47:44.673Z,30.80
2017-09-26T08:50:11.511Z,28.50
2017-09-26T08:52:38.301Z,30.93
2017-09-26T08:55:05.116Z,32.23
2017-09-26T08:57:31.966Z,26.70
2017-09-26T08:59:58.856Z,27.73
2017-09-26T09:02:26.408Z,27.57
2017-09-26T09:04:53.214Z,33.10
2017-09-26T09:07:20.031Z,29.10
2017-09-26T09:09:46.877Z,30.53
2017-09-26T09:12:13.742Z,27.60
2017-09-26T09:14:40.576Z,26.60
2017-09-26T09:17:07.390Z,27.97
2017-09-26T09:19:34.195Z,31.43
2017-09-26T09:22:00.997Z,27.67
2017-09-26T09:24:27.807Z,28.87
2017-09-26T09:26:54.595Z,30.67
2017-09-26T09:29:21.510Z,29.87
2017-09-26T09:31:49.073Z,27.80
2017-09-26T09:34:16.573Z,26.40
2017-09-26T09:36:43.407Z,27.87
2017-09-26T09:39:10.192Z,29.07
2017-09-26T09:41:37.020Z,30.00
2017-09-26T09:44:03.831Z,28.50
2017-09-26T09:46:30.615Z,26.60
2017-09-26T09:48:57.395Z,26.93
2017-09-26T09:51:24.229Z,31.80
2017-09-26T09:53:51.031Z,24.30
2017-09-26T09:56:17.855Z,30.57
2017-09-26T09:58:44.641Z,28.73
2017-09-26T10:01:11.438Z,27.60
2017-09-26T10:03:38.256Z,27.57
2017-09-26T10:06:05.078Z,29.87
2017-09-26T10:08:31.873Z,25.40
2017-09-26T10:10:58.691Z,27.27
2017-09-26T10:13:25.486Z,24.20
2017-09-26T10:15:52.297Z,28.30
2017-09-26T10:18:19.113Z,28.40
2017-09-26T10:20:45.978Z,29.33
2017-09-26T10:23:12.785Z,26.97
2017-09-26T10:25:39.600Z,26.47
2017-09-26T10:28:06.413Z,26.00
2017-09-26T10:30:33.236Z,24.80
2017-09-26T10:33:00.753Z,24.27
2017-09-26T10:35:27.544Z,23.50
2017-09-26T10:37:54.334Z,25.27
2017-09-26T10:40:21.160Z,23.13
2017-09-26T10:42:47.945Z,27.30
2017-09-26T10:45:14.757Z,25.60
2017-09-26T10:47:41.528Z,24.07
2017-09-26T10:50:09.061Z,23.80
2017-09-26T10:52:36.611Z,23.10
2017-09-26T10:55:03.421Z,22.73
2017-09-26T10:57:30.227Z,23.90
2017-09-26T10:59:57.034Z,24.10
2017-09-26T11:02:23.836Z,23.40
2017-09-26T11:04:50.637Z,21.30
2017-09-26T11:07:18.167Z,23.03
2017-09-26T11:09:45.018Z,21.47
2017-09-26T11:12:11.792Z,22.57
2017-09-26T11:14:38.577Z,22.93
2017-09-26T11:17:05.369Z,20.53
2017-09-26T11:19:32.209Z,19.97
2017-09-26T11:21:59.912Z,18.63
2017-09-26T11:24:30.051Z,21.63
2017-09-26T11:26:56.996Z,16.63
2017-09-26T11:29:24.565Z,20.90
2017-09-26T11:31:51.726Z,14.80
2017-09-26T11:34:18.542Z,15.57
2017-09-26T11:36:45.967Z,15.30
2017-09-26T11:39:13.253Z,14.67
2017-09-26T11:41:40.096Z,15.17
2017-09-26T11:44:07.849Z,14.57
2017-09-26T11:46:35.070Z,14.47
2017-09-26T11:49:02.693Z,14.57
2017-09-26T11:51:29.486Z,13.83
2017-09-26T11:53:56.306Z,16.17
2017-09-26T11:56:23.111Z,12.67
2017-09-26T11:58:49.944Z,13.47
2017-09-26T12:01:17.637Z,13.83
2017-09-26T12:03:44.489Z,12.43
2017-09-26T12:06:11.317Z,12.20
2017-09-26T12:08:38.196Z,13.73
2017-09-26T12:11:05.001Z,13.77
2017-09-26T12:13:38.671Z,12.87
2017-09-26T12:16:05.567Z,14.00
2017-09-26T12:18:32.395Z,14.80
2017-09-26T12:20:59.223Z,13.73
2017-09-26T12:23:26.040Z,12.60
2017-09-26T12:25:52.855Z,14.57
2017-09-26T12:28:19.664Z,12.07
2017-09-26T12:30:46.472Z,12.47
2017-09-26T12:33:13.283Z,13.63
2017-09-26T12:35:40.159Z,12.40
2017-09-26T12:38:06.974Z,11.83
2017-09-26T12:40:33.816Z,12.20
2017-09-26T12:43:00.645Z,12.63
2017-09-26T12:45:27.481Z,12.40
2017-09-26T12:47:54.330Z,11.50
2017-09-26T12:50:21.213Z,11.30
2017-09-26T12:52:48.354Z,12.43
2017-09-26T12:55:15.307Z,11.30
2017-09-26T12:57:42.922Z,12.93
2017-09-26T13:00:09.764Z,15.40
2017-09-26T13:02:36.631Z,16.83
2017-09-26T13:05:03.634Z,13.37
2017-09-26T13:07:30.522Z,13.73
2017-09-26T13:10:00.389Z,18.53
2017-09-26T13:12:27.593Z,15.83
2017-09-26T13:14:55.176Z,16.20
2017-09-26T13:17:22.786Z,15.17
2017-09-26T13:19:49.708Z,16.83
2017-09-26T13:22:16.521Z,21.03
2017-09-26T13:24:43.353Z,19.40
2017-09-26T13:27:10.171Z,18.60
2017-09-26T13:29:37.002Z,18.37
2017-09-26T13:32:04.534Z,17.20
2017-09-26T13:34:31.431Z,17.00
2017-09-26T13:36:58.224Z,16.47
2017-09-26T13:39:25.057Z,18.13
2017-09-26T13:41:51.891Z,17.30
2017-09-26T13:44:19.435Z,16.77
2017-09-26T13:46:46.239Z,18.13
2017-09-26T13:49:13.032Z,8.13
2017-09-26T13:51:40.486Z,6.63
2017-09-26T13:54:07.275Z,5.63
2017-09-26T13:56:35.439Z,6.57
2017-09-26T13:59:03.037Z,4.80
2017-09-26T14:01:29.879Z,6.00
2017-09-26T14:03:56.676Z,4.97
2017-09-26T14:06:23.511Z,7.70
2017-09-26T14:08:51.036Z,16.83
2017-09-26T14:11:18.591Z,7.53
2017-09-26T14:13:45.968Z,11.63
2017-09-26T14:16:13.473Z,12.83
2017-09-26T14:18:41.104Z,6.60
2017-09-26T14:21:07.934Z,9.87
2017-09-26T14:23:35.367Z,7.50
2017-09-26T14:26:02.160Z,9.67
2017-09-26T14:28:29.044Z,6.93
2017-09-26T14:30:56.044Z,8.70
2017-09-26T14:33:22.918Z,8.63
2017-09-26T14:35:49.915Z,11.10
2017-09-26T14:38:16.788Z,6.60
2017-09-26T14:40:43.612Z,8.37
2017-09-26T14:43:11.188Z,8.50
2017-09-26T14:45:37.980Z,8.83
2017-09-26T14:48:05.221Z,14.83
2017-09-26T14:50:32.775Z,9.70
2017-09-26T14:52:59.576Z,8.13
2017-09-26T14:55:27.095Z,8.07
2017-09-26T14:57:53.933Z,8.27
2017-09-26T15:00:22.514Z,12.03
2017-09-26T15:02:49.402Z,7.20
2017-09-26T15:05:16.242Z,9.40
2017-09-26T15:07:43.085Z,6.87
2017-09-26T15:10:10.626Z,9.83
2017-09-26T15:12:37.713Z,13.10
2017-09-26T15:15:04.526Z,7.47
2017-09-26T15:17:31.372Z,10.97
2017-09-26T15:19:59.007Z,7.73
2017-09-26T15:22:25.820Z,7.20
2017-09-26T15:24:52.628Z,7.87
2017-09-26T15:27:19.916Z,8.53
2017-09-26T15:29:46.705Z,9.17
2017-09-26T15:32:14.150Z,11.40
2017-09-26T15:34:42.383Z,6.60
2017-09-26T15:37:09.225Z,6.90
2017-09-26T15:39:36.094Z,9.70
2017-09-26T15:42:02.906Z,6.80
2017-09-26T15:44:30.159Z,6.67
2017-09-26T15:46:57.314Z,11.17
2017-09-26T15:49:24.183Z,8.43
2017-09-26T15:51:51.392Z,6.53
2017-09-26T15:54:18.988Z,6.80
2017-09-26T15:56:46.551Z,6.60
2017-09-26T15:59:13.352Z,6.87
2017-09-26T16:01:40.136Z,7.70
2017-09-26T16:04:07.389Z,6.30
2017-09-26T16:06:34.216Z,9.97
2017-09-26T16:09:01.834Z,16.17
2017-09-26T16:11:28.637Z,5.73
2017-09-26T16:13:55.408Z,8.20
2017-09-26T16:16:22.923Z,8.50
2017-09-26T16:18:50.470Z,8.50
2017-09-26T16:21:17.310Z,5.97
2017-09-26T16:23:44.130Z,7.00
2017-09-26T16:26:10.929Z,6.33
2017-09-26T16:28:37.729Z,6.80
2017-09-26T16:31:04.533Z,6.87
2017-09-26T16:33:31.347Z,8.50
2017-09-26T16:35:58.148Z,8.80
2017-09-26T16:38:24.985Z,8.27
2017-09-26T16:40:51.789Z,9.97
2017-09-26T16:43:18.584Z,12.77
2017-09-26T16:45:45.403Z,11.27
2017-09-26T16:48:12.224Z,8.53
2017-09-26T16:50:39.078Z,13.20
2017-09-26T16:53:05.869Z,9.53
2017-09-26T16:55:32.743Z,9.10
2017-09-26T16:57:59.507Z,8.77
2017-09-26T17:00:26.323Z,9.67
2017-09-26T17:02:53.161Z,10.67
2017-09-26T17:05:20.715Z,9.13
2017-09-26T17:07:48.393Z,10.13
2017-09-26T17:10:15.220Z,11.33
2017-09-26T17:12:42.057Z,10.43
2017-09-26T17:15:08.894Z,12.23
2017-09-26T17:17:36.459Z,13.40
2017-09-26T17:20:03.338Z,11.87
2017-09-26T17:22:30.916Z,12.13
2017-09-26T17:24:59.023Z,13.20
2017-09-26T17:27:26.045Z,9.53
2017-09-26T17:29:54.025Z,10.57
2017-09-26T17:32:21.035Z,13.00
2017-09-26T17:34:47.876Z,14.97
2017-09-26T17:37:15.484Z,11.57
2017-09-26T17:39:42.363Z,10.57
2017-09-26T17:42:09.181Z,11.97
2017-09-26T17:44:37.051Z,10.43
2017-09-26T17:47:03.901Z,10.07
2017-09-26T17:49:30.739Z,11.60
2017-09-26T17:51:57.561Z,10.87
2017-09-26T17:54:25.259Z,13.40
2017-09-26T17:56:52.139Z,12.67
2017-09-26T17:59:18.980Z,12.77
2017-09-26T18:01:45.883Z,15.57
2017-09-26T18:04:12.830Z,11.40
2017-09-26T18:06:39.654Z,13.03
2017-09-26T18:09:06.502Z,14.83
2017-09-26T18:11:34.069Z,11.67
2017-09-26T18:14:01.646Z,13.47
2017-09-26T18:16:28.534Z,11.73
2017-09-26T18:18:55.406Z,13.33
2017-09-26T18:21:22.470Z,14.47
2017-09-26T18:23:49.335Z,12.23
2017-09-26T18:26:16.179Z,14.33
2017-09-26T18:28:43.215Z,14.37
2017-09-26T18:31:10.818Z,12.33
2017-09-26T18:33:38.994Z,12.27
2017-09-26T18:36:05.839Z,12.73
2017-09-26T18:38:32.715Z,14.70
2017-09-26T18:41:00.268Z,12.17
2017-09-26T18:43:27.154Z,15.77
2017-09-26T18:45:54.083Z,15.80
2017-09-26T18:48:20.910Z,13.13
2017-09-26T18:50:47.771Z,14.27
2017-09-26T18:53:15.101Z,15.87
2017-09-26T18:55:42.160Z,13.37
2017-09-26T18:58:09.791Z,16.47
2017-09-26T19:00:36.661Z,14.20
2017-09-26T19:03:03.509Z,16.30
2017-09-26T19:05:30.416Z,15.47
2017-09-26T19:07:57.348Z,12.57
2017-09-26T19:10:25.234Z,12.53
2017-09-26T19:12:52.155Z,15.17
2017-09-26T19:15:19.081Z,14.43
2017-09-26T19:17:46.628Z,13.03
2017-09-26T19:20:13.917Z,15.90
2017-09-26T19:22:40.844Z,15.17
2017-09-26T19:25:07.723Z,11.10
2017-09-26T19:27:34.660Z,13.80
2017-09-26T19:30:02.390Z,12.00
2017-09-26T19:32:29.993Z,12.33
2017-09-26T19:34:57.683Z,13.33
2017-09-26T19:37:24.518Z,11.50
2017-09-26T19:39:51.410Z,12.97
2017-09-26T19:42:18.750Z,14.43
2017-09-26T19:44:45.813Z,11.77
2017-09-26T19:47:13.291Z,15.43
2017-09-26T19:49:40.245Z,13.57
2017-09-26T19:52:08.084Z,13.17
2017-09-26T19:54:35.034Z,12.60
2017-09-26T19:57:02.600Z,11.50
2017-09-26T19:59:29.446Z,16.80
2017-09-26T20:01:56.337Z,13.83
2017-09-26T20:04:23.183Z,17.13
2017-09-26T20:06:50.015Z,13.40
2017-09-26T20:09:16.887Z,13.50
2017-09-26T20:11:43.712Z,12.27
2017-09-26T20:14:10.645Z,13.43
2017-09-26T20:16:38.227Z,14.97
2017-09-26T20:19:05.033Z,12.73
2017-09-26T20:21:31.839Z,12.93
2017-09-26T20:23:58.664Z,14.33
2017-09-26T20:26:26.219Z,15.63
2017-09-26T20:28:53.028Z,11.87
2017-09-26T20:31:19.865Z,12.63
2017-09-26T20:33:46.730Z,13.50
2017-09-26T20:36:13.580Z,12.43
2017-09-26T20:38:40.392Z,15.43
2017-09-26T20:41:07.220Z,13.60
2017-09-26T20:43:35.622Z,19.00
2017-09-26T20:46:02.562Z,18.00
2017-09-26T20:48:29.479Z,15.57
2017-09-26T20:50:56.334Z,19.50
2017-09-26T20:53:23.164Z,21.47
2017-09-26T20:55:50.019Z,18.80
2017-09-26T20:58:16.903Z,16.43
2017-09-26T21:00:44.249Z,17.93
2017-09-26T21:03:11.490Z,16.43
2017-09-26T21:05:38.391Z,16.53
2017-09-26T21:08:05.252Z,14.67
2017-09-26T21:10:32.095Z,14.63
2017-09-26T21:12:59.712Z,18.70
2017-09-26T21:15:27.579Z,19.00
2017-09-26T21:17:54.482Z,14.10
2017-09-26T21:20:22.290Z,19.37
2017-09-26T21:22:49.326Z,16.40
2017-09-26T21:25:16.674Z,12.83
2017-09-26T21:27:44.299Z,12.73
2017-09-26T21:30:11.450Z,14.43
2017-09-26T21:32:39.026Z,14.47
2017-09-26T21:35:06.610Z,19.80
2017-09-26T21:37:34.231Z,13.20
2017-09-26T21:40:01.068Z,15.17
2017-09-26T21:42:27.901Z,17.90
2017-09-26T21:44:54.741Z,12.77
2017-09-26T21:47:21.598Z,15.40
2017-09-26T21:49:48.602Z,13.23
2017-09-26T21:52:16.353Z,12.30
2017-09-26T21:54:43.202Z,16.20
2017-09-26T21:57:10.099Z,15.03
2017-09-26T21:59:37.634Z,17.47
2017-09-26T22:02:04.516Z,15.30
2017-09-26T22:04:31.479Z,14.30
2017-09-26T22:06:58.343Z,18.37
2017-09-26T22:09:25.478Z,14.90
2017-09-26T22:11:52.350Z,12.47
2017-09-26T22:14:19.314Z,15.23
2017-09-26T22:16:46.349Z,14.10
2017-09-26T22:19:13.325Z,13.77
2017-09-26T22:21:40.258Z,15.57
2017-09-26T22:24:07.908Z,20.90
2017-09-26T22:26:34.742Z,14.37
2017-09-26T22:29:01.517Z,12.40
2017-09-26T22:31:28.321Z,16.73
2017-09-26T22:33:55.138Z,14.43
2017-09-26T22:36:22.093Z,12.93
2017-09-26T22:38:48.875Z,14.20
2017-09-26T22:41:15.777Z,14.43
2017-09-26T22:43:42.638Z,14.20
2017-09-26T22:46:09.541Z,11.00
2017-09-26T22:48:36.472Z,13.57
2017-09-26T22:51:03.414Z,19.67
2017-09-26T22:53:31.026Z,12.00
2017-09-26T22:55:58.793Z,12.57
2017-09-26T22:58:25.729Z,13.33
2017-09-26T23:00:52.656Z,13.30
2017-09-26T23:03:19.670Z,11.77
2017-09-26T23:05:47.300Z,14.53
2017-09-26T23:08:14.146Z,13.90
2017-09-26T23:10:41.008Z,14.23
2017-09-26T23:13:07.811Z,12.70
2017-09-26T23:15:34.600Z,12.67
2017-09-26T23:18:01.407Z,12.03
2017-09-26T23:20:29.608Z,14.73
2017-09-26T23:22:56.468Z,11.07
2017-09-26T23:25:23.306Z,14.20
2017-09-26T23:27:50.222Z,14.90
2017-09-26T23:30:17.834Z,13.80
2017-09-26T23:32:45.453Z,15.23
2017-09-26T23:35:13.062Z,13.40
2017-09-26T23:37:40.627Z,15.43
2017-09-26T23:40:07.431Z,14.50
2017-09-26T23:42:34.253Z,14.10
2017-09-26T23:45:01.973Z,18.40
2017-09-26T23:47:28.796Z,15.00
2017-09-26T23:49:56.350Z,16.33
2017-09-26T23:52:23.216Z,18.67
2017-09-26T23:54:50.407Z,17.30
2017-09-26T23:57:17.959Z,13.00
2017-09-26T23:59:44.839Z,16.57
